Time;durP1;ratioP1;P1;durP2;ratioP2;P2;SDS_P1;SDS_P2;PMS_P1;PMS_P2;Temp;Humidity;BMP_temperature;BMP_pressure;BME280_temperature;BME280_humidity;BME280_pressure;Samples;Min_cycle;Max_cycle;Signal;HPM_P1;HPM_P2
2022/01/08 00:00:22;;;;;;;6.97;6.27;;;;;;;4.75;62.57;97500.94;8448711;28;20241;-67
2022/01/08 00:04:25;;;;;;;9.80;6.57;;;;;;;4.93;62.49;97499.59;8480918;28;20229;-67
2022/01/08 00:08:30;;;;;;;10.17;6.90;;;;;;;4.64;62.73;97501.25;8480445;28;20230;-67
2022/01/08 00:12:33;;;;;;;8.37;6.43;;;;;;;4.95;62.30;97495.25;8446398;28;20328;-67
2022/01/08 00:16:37;;;;;;;6.33;5.20;;;;;;;5.29;60.91;97495.09;8446976;28;20241;-68
2022/01/08 00:20:40;;;;;;;8.70;6.50;;;;;;;4.79;62.19;97488.88;8446747;28;20233;-66
2022/01/08 00:24:44;;;;;;;6.47;5.70;;;;;;;5.19;61.45;97483.41;8447136;28;20233;-67
2022/01/08 00:28:47;;;;;;;6.43;5.30;;;;;;;5.43;60.54;97480.97;8446660;28;20583;-66
2022/01/08 00:32:51;;;;;;;6.57;5.63;;;;;;;5.04;60.95;97478.72;8446657;28;20245;-67
2022/01/08 00:36:54;;;;;;;7.83;5.87;;;;;;;4.97;61.80;97488.34;8449673;28;20229;-67
2022/01/08 00:40:58;;;;;;;6.17;5.57;;;;;;;5.01;61.17;97473.72;8481742;28;20388;-67
2022/01/08 00:45:01;;;;;;;6.60;6.00;;;;;;;4.75;62.36;97464.19;8486742;28;20232;-66
2022/01/08 00:49:04;;;;;;;8.43;6.30;;;;;;;4.83;61.98;97451.97;8480149;28;20236;-66
2022/01/08 00:53:07;;;;;;;6.90;6.20;;;;;;;4.97;61.19;97452.44;8452927;28;20419;-66
2022/01/08 00:57:12;;;;;;;6.40;5.80;;;;;;;4.95;61.58;97453.34;8452837;28;20404;-66
2022/01/08 01:01:15;;;;;;;8.27;7.23;;;;;;;4.72;62.28;97456.59;8452410;28;20237;-66
2022/01/08 01:05:19;;;;;;;7.47;6.77;;;;;;;4.43;63.65;97441.13;8452725;28;20413;-66
2022/01/08 01:09:22;;;;;;;7.40;6.70;;;;;;;4.51;63.88;97435.78;8452184;28;20461;-66
2022/01/08 01:13:27;;;;;;;8.10;7.17;;;;;;;4.58;62.97;97426.22;8452095;28;20226;-66
2022/01/08 01:17:30;;;;;;;8.83;7.13;;;;;;;4.42;63.12;97418.13;8452218;28;20234;-66
2022/01/08 01:21:33;;;;;;;8.17;6.90;;;;;;;4.72;62.11;97407.84;8452228;28;20229;-67
2022/01/08 01:25:39;;;;;;;7.30;6.60;;;;;;;5.35;60.15;97426.44;8450480;28;20407;-66
2022/01/08 01:29:52;;;;;;;6.77;5.93;;;;;;;4.84;61.99;97422.88;8451823;28;20241;-66
2022/01/08 01:43:06;;;;;;;6.57;5.97;;;;;;;5.41;59.90;97403.16;8451503;28;20226;-66
2022/01/08 01:47:10;;;;;;;6.33;5.73;;;;;;;5.34;59.96;97387.09;8453097;28;20208;-66
2022/01/08 01:51:18;;;;;;;6.23;5.63;;;;;;;5.26;59.80;97379.63;8452806;28;20194;-66
2022/01/08 01:55:21;;;;;;;6.50;5.90;;;;;;;5.57;59.33;97377.78;8451084;28;20222;-66
2022/01/08 01:59:28;;;;;;;5.77;5.17;;;;;;;5.61;58.94;97371.66;8450646;28;20537;-66
2022/01/08 02:03:32;;;;;;;7.90;5.80;;;;;;;5.47;59.25;97351.56;8449976;28;20222;-68
2022/01/08 02:07:35;;;;;;;8.13;6.70;;;;;;;5.60;58.86;97345.13;8450485;28;20230;-66
2022/01/08 02:11:56;;;;;;;6.07;5.57;;;;;;;5.15;59.23;97342.38;8476824;28;20229;-66
2022/01/08 02:16:01;;;;;;;6.77;6.10;;;;;;;5.36;58.70;97339.09;8484282;28;20226;-66
2022/01/08 02:20:07;;;;;;;6.70;6.10;;;;;;;5.19;58.88;97324.25;8483422;28;20229;-66
2022/01/08 02:24:12;;;;;;;6.40;5.80;;;;;;;5.36;58.69;97317.72;8483741;28;20232;-66
2022/01/08 02:28:15;;;;;;;6.90;6.20;;;;;;;5.19;58.35;97305.44;8483454;28;20232;-66
2022/01/08 02:32:24;;;;;;;6.97;5.93;;;;;;;5.18;59.04;97301.19;8453023;28;20238;-67
2022/01/08 02:36:30;;;;;;;6.83;6.07;;;;;;;4.85;60.10;97299.66;8415631;28;20427;-68
2022/01/08 02:40:36;;;;;;;6.50;5.87;;;;;;;4.40;61.02;97287.41;8423059;28;20230;-68
2022/01/08 02:44:39;;;;;;;7.10;5.63;;;;;;;4.93;59.81;97291.75;8415628;28;20440;-68
2022/01/08 02:48:42;;;;;;;6.23;5.73;;;;;;;4.69;60.45;97280.53;8415420;28;20422;-68
2022/01/08 02:52:48;;;;;;;6.53;5.93;;;;;;;4.67;60.51;97269.50;8414974;28;20246;-68
2022/01/08 02:56:51;;;;;;;6.10;5.60;;;;;;;4.53;61.02;97262.22;8414989;28;20238;-68
2022/01/08 03:00:54;;;;;;;7.33;6.30;;;;;;;4.23;62.53;97269.97;8415221;28;20254;-68
2022/01/08 03:04:57;;;;;;;6.90;6.20;;;;;;;4.17;61.63;97267.59;8446458;28;20237;-68
2022/01/08 03:09:01;;;;;;;7.13;6.43;;;;;;;4.40;61.18;97261.78;8448116;28;20229;-68
2022/01/08 03:13:05;;;;;;;6.80;6.20;;;;;;;4.62;60.79;97248.28;8447982;28;20229;-68
2022/01/08 03:17:08;;;;;;;6.20;5.60;;;;;;;4.42;61.33;97247.19;8448033;28;20236;-68
2022/01/08 03:21:13;;;;;;;6.60;6.00;;;;;;;4.63;60.10;97248.22;8448000;28;20237;-68
2022/01/08 03:25:18;;;;;;;6.83;6.13;;;;;;;5.12;59.49;97247.50;8447868;28;20253;-68
2022/01/08 03:29:21;;;;;;;6.27;5.67;;;;;;;4.99;59.79;97249.63;8447784;28;20233;-68
2022/01/08 03:33:24;;;;;;;7.77;6.03;;;;;;;4.99;59.07;97241.91;8447487;28;20433;-68
2022/01/08 03:37:27;;;;;;;7.10;6.40;;;;;;;4.80;59.32;97245.13;8447478;28;20226;-67
2022/01/08 03:41:32;;;;;;;6.30;5.70;;;;;;;4.84;59.46;97231.31;8447494;28;20237;-68
2022/01/08 03:45:35;;;;;;;7.87;6.73;;;;;;;4.28;60.53;97229.69;8480859;28;20377;-68
2022/01/08 03:49:37;;;;;;;7.90;7.10;;;;;;;3.87;63.10;97220.66;8480867;28;20233;-68
2022/01/08 03:53:41;;;;;;;8.00;7.27;;;;;;;3.86;62.73;97211.28;8481015;28;20225;-68
2022/01/08 03:57:46;;;;;;;7.90;7.20;;;;;;;3.79;63.60;97205.53;8480871;28;20229;-68
2022/01/08 04:01:49;;;;;;;7.50;6.70;;;;;;;4.29;62.39;97205.69;8480693;28;20233;-68
2022/01/08 04:05:52;;;;;;;7.97;7.27;;;;;;;4.16;63.32;97203.56;8480713;28;20241;-68
2022/01/08 04:09:55;;;;;;;8.27;7.40;;;;;;;4.11;63.25;97190.88;8480598;28;20229;-68
2022/01/08 04:13:59;;;;;;;8.37;7.57;;;;;;;4.09;63.39;97174.72;8480703;28;20236;-68
2022/01/08 04:18:02;;;;;;;8.40;7.70;;;;;;;3.58;64.94;97175.41;8485824;28;20229;-68
2022/01/08 04:22:12;;;;;;;8.30;7.60;;;;;;;3.74;64.84;97168.13;8487776;28;20239;-68
2022/01/08 04:26:15;;;;;;;7.53;6.93;;;;;;;3.94;64.46;97168.38;8487300;28;20232;-68
2022/01/08 04:30:19;;;;;;;8.60;7.77;;;;;;;3.56;65.94;97162.66;8487043;28;20242;-68
2022/01/08 04:34:22;;;;;;;6.83;6.13;;;;;;;3.85;65.70;97160.97;8487194;28;20225;-68
2022/01/08 04:38:25;;;;;;;7.20;6.50;;;;;;;4.08;64.70;97150.84;8487201;28;20236;-67
2022/01/08 04:42:28;;;;;;;7.20;6.50;;;;;;;4.17;64.93;97146.28;8486629;28;20229;-67
2022/01/08 04:46:32;;;;;;;7.23;6.53;;;;;;;3.88;65.02;97145.47;8452396;28;20233;-68
2022/01/08 04:50:35;;;;;;;7.50;6.90;;;;;;;3.49;66.80;97143.25;8452881;28;20230;-68
2022/01/08 04:54:38;;;;;;;7.67;6.93;;;;;;;3.90;65.79;97141.16;8452447;28;20237;-68
2022/01/08 04:58:42;;;;;;;7.27;6.60;;;;;;;3.89;65.51;97126.69;8452341;28;20517;-67
2022/01/08 05:02:46;;;;;;;6.87;6.27;;;;;;;3.49;67.53;97122.75;8452203;28;20230;-67
2022/01/08 05:06:49;;;;;;;7.40;6.73;;;;;;;3.71;67.63;97116.13;8452123;28;20234;-67
2022/01/08 05:10:52;;;;;;;7.47;6.73;;;;;;;3.59;67.68;97111.34;8452230;28;20230;-67
2022/01/08 05:14:56;;;;;;;7.00;6.40;;;;;;;3.86;66.57;97107.09;8452026;28;20226;-67
2022/01/08 05:19:01;;;;;;;7.67;6.90;;;;;;;4.00;65.97;97109.25;8451927;28;20234;-67
2022/01/08 05:23:04;;;;;;;7.10;6.40;;;;;;;3.99;66.02;97105.00;8451901;28;20233;-67
2022/01/08 05:27:10;;;;;;;6.83;6.20;;;;;;;3.94;66.36;97101.75;8450449;28;20267;-67
2022/01/08 05:31:15;;;;;;;7.63;6.83;;;;;;;3.81;67.00;97097.88;8451475;28;20238;-67
2022/01/08 05:35:24;;;;;;;7.73;7.03;;;;;;;3.54;67.50;97090.16;8451582;28;20230;-68
2022/01/08 05:39:27;;;;;;;7.87;7.20;;;;;;;3.51;68.84;97093.66;8451466;28;20238;-67
2022/01/08 05:43:30;;;;;;;7.30;6.70;;;;;;;3.80;67.45;97094.50;8451506;28;20544;-67
2022/01/08 05:47:34;;;;;;;6.90;6.30;;;;;;;3.97;67.20;97093.97;8484452;28;20289;-68
2022/01/08 05:51:39;;;;;;;8.07;7.43;;;;;;;3.90;67.22;97098.47;8484765;28;20237;-68
2022/01/08 05:55:42;;;;;;;7.53;6.70;;;;;;;4.09;66.73;97085.03;8485001;28;20400;-68
2022/01/08 05:59:45;;;;;;;7.40;6.80;;;;;;;3.87;67.80;97090.84;8484586;28;20462;-67
2022/01/08 06:03:50;;;;;;;8.50;7.80;;;;;;;3.66;68.50;97086.41;8484350;28;20240;-67
2022/01/08 06:07:55;;;;;;;7.87;7.27;;;;;;;3.75;67.84;97085.28;8484194;28;20438;-67
2022/01/08 06:11:58;;;;;;;7.17;6.57;;;;;;;4.06;66.76;97093.66;8484477;28;20236;-67
2022/01/08 06:16:01;;;;;;;7.80;7.10;;;;;;;4.15;66.91;97090.00;8484277;28;20221;-67
2022/01/08 06:20:05;;;;;;;7.97;7.27;;;;;;;3.48;69.17;97073.28;8483756;28;20229;-67
2022/01/08 06:24:09;;;;;;;6.10;5.57;;;;;;;4.57;66.03;97097.13;8483203;28;20234;-67
2022/01/08 06:28:12;;;;;;;5.57;5.07;;;;;;;4.82;64.88;97088.59;8483470;28;20225;-67
2022/01/08 06:32:16;;;;;;;5.70;5.20;;;;;;;4.97;64.39;97093.16;8483106;28;20230;-67
2022/01/08 06:36:20;;;;;;;5.83;5.33;;;;;;;4.69;64.96;97090.75;8483221;28;20225;-68
2022/01/08 06:40:24;;;;;;;4.60;4.20;;;;;;;5.13;63.55;97110.59;8482694;28;20236;-67
2022/01/08 06:44:27;;;;;;;4.77;4.10;;;;;;;5.32;63.22;97103.88;8482957;28;20225;-67
2022/01/08 06:48:30;;;;;;;5.17;4.40;;;;;;;4.78;64.25;97103.25;8482762;28;20225;-67
2022/01/08 06:52:33;;;;;;;4.10;3.70;;;;;;;5.19;63.71;97111.19;8448237;28;20547;-68
2022/01/08 06:56:38;;;;;;;4.53;3.90;;;;;;;5.32;62.82;97109.00;8448812;28;20233;-67
2022/01/08 07:00:41;;;;;;;3.80;3.50;;;;;;;5.17;63.84;97123.22;8448612;28;20241;-67
2022/01/08 07:04:44;;;;;;;4.20;3.80;;;;;;;5.30;63.14;97121.06;8448330;28;20264;-67
2022/01/08 07:08:47;;;;;;;4.00;3.60;;;;;;;5.48;62.60;97135.81;8448482;28;20238;-67
2022/01/08 07:12:51;;;;;;;5.10;4.50;;;;;;;5.29;63.08;97132.22;8448758;28;20229;-67
2022/01/08 07:16:55;;;;;;;4.50;4.10;;;;;;;5.53;62.18;97135.63;8448678;28;20230;-67
2022/01/08 07:20:58;;;;;;;3.63;3.33;;;;;;;5.42;63.13;97142.88;8448282;28;20511;-67
2022/01/08 07:25:03;;;;;;;4.00;3.60;;;;;;;5.40;62.56;97153.19;8448022;28;20226;-68
2022/01/08 07:29:07;;;;;;;4.47;4.10;;;;;;;5.49;61.77;97154.59;8448075;28;20248;-68
2022/01/08 07:33:10;;;;;;;3.83;3.53;;;;;;;5.55;62.26;97162.09;8447962;28;20240;-67
2022/01/08 07:37:13;;;;;;;4.53;4.13;;;;;;;5.64;61.41;97171.19;8447698;28;20395;-67
2022/01/08 07:41:15;;;;;;;4.30;3.90;;;;;;;5.34;62.71;97168.00;8447565;28;20230;-67
2022/01/08 07:45:20;;;;;;;4.53;4.13;;;;;;;5.74;61.73;97177.66;8448055;28;20234;-67
2022/01/08 07:49:23;;;;;;;3.80;3.50;;;;;;;5.69;62.03;97187.25;8447897;28;20240;-67
2022/01/08 07:53:27;;;;;;;3.00;2.80;;;;;;;5.78;61.42;97189.47;8446265;28;20230;-67
2022/01/08 07:57:30;;;;;;;4.27;3.87;;;;;;;5.79;61.60;97195.47;8446721;28;20242;-67
2022/01/08 08:01:34;;;;;;;3.00;2.80;;;;;;;5.73;61.44;97198.25;8446459;28;20218;-68
2022/01/08 08:05:37;;;;;;;2.93;2.60;;;;;;;5.51;62.82;97201.63;8446873;28;20242;-68
2022/01/08 08:09:40;;;;;;;2.80;2.13;;;;;;;5.76;61.80;97206.69;8447023;28;20431;-67
2022/01/08 08:13:43;;;;;;;2.20;2.00;;;;;;;5.62;61.90;97217.47;8447037;28;20235;-68
2022/01/08 08:17:48;;;;;;;1.83;1.73;;;;;;;5.71;61.54;97224.00;8446918;28;20226;-67
2022/01/08 08:21:51;;;;;;;2.97;2.00;;;;;;;5.74;61.63;97221.31;8446833;28;20246;-67
2022/01/08 08:25:54;;;;;;;1.83;1.70;;;;;;;5.35;62.53;97236.44;8446646;28;20226;-68
2022/01/08 08:29:57;;;;;;;2.37;2.13;;;;;;;5.38;62.54;97229.47;8446429;28;20256;-68
2022/01/08 08:34:01;;;;;;;2.30;2.10;;;;;;;5.45;61.78;97251.47;8446927;28;20233;-67
2022/01/08 08:38:04;;;;;;;2.80;1.83;;;;;;;5.70;60.83;97248.03;8446246;28;20226;-67
2022/01/08 08:42:07;;;;;;;2.30;2.10;;;;;;;5.33;61.82;97257.03;8446204;28;20229;-67
2022/01/08 08:46:10;;;;;;;3.07;2.70;;;;;;;5.45;61.55;97269.44;8446192;28;20237;-67
2022/01/08 08:50:15;;;;;;;2.83;2.53;;;;;;;5.64;60.86;97271.38;8456404;28;20543;-67
2022/01/08 08:54:18;;;;;;;3.40;2.10;;;;;;;5.47;61.60;97282.22;8462628;28;20225;-67
2022/01/08 08:58:21;;;;;;;2.37;2.17;;;;;;;5.28;62.05;97290.56;8462372;28;20222;-67
2022/01/08 09:02:24;;;;;;;2.43;2.23;;;;;;;5.00;62.26;97305.19;8466732;28;20232;-67
2022/01/08 09:06:30;;;;;;;1.40;1.30;;;;;;;5.02;62.99;97322.22;8468420;28;20291;-67
2022/01/08 09:10:33;;;;;;;1.07;0.90;;;;;;;5.07;62.38;97334.91;8467686;28;20221;-68
2022/01/08 09:14:36;;;;;;;1.87;1.67;;;;;;;5.22;62.24;97349.00;8467944;28;20229;-67
2022/01/08 09:18:41;;;;;;;1.67;1.57;;;;;;;5.13;62.55;97351.84;8472307;28;20290;-67
2022/01/08 09:22:45;;;;;;;1.10;1.00;;;;;;;5.16;62.13;97367.13;8485132;28;20233;-67
2022/01/08 09:26:48;;;;;;;0.77;0.70;;;;;;;5.14;62.25;97372.34;8485252;28;20433;-67
2022/01/08 09:30:52;;;;;;;0.83;0.80;;;;;;;4.85;63.41;97383.50;8485042;28;20252;-67
2022/01/08 09:34:54;;;;;;;1.10;1.00;;;;;;;4.90;62.42;97395.31;8485014;28;20236;-67
2022/01/08 09:38:59;;;;;;;2.07;1.17;;;;;;;4.41;63.49;97404.44;8482778;28;20229;-67
2022/01/08 09:43:04;;;;;;;4.73;2.63;;;;;;;4.69;62.76;97424.19;8450628;28;20240;-67
2022/01/08 09:47:07;;;;;;;2.77;1.70;;;;;;;4.89;63.04;97432.13;8450755;28;20237;-67
2022/01/08 09:51:10;;;;;;;2.27;1.30;;;;;;;4.87;62.59;97441.59;8464394;28;20236;-67
2022/01/08 09:55:14;;;;;;;1.83;1.23;;;;;;;4.65;63.66;97458.50;8466714;28;20228;-67
2022/01/08 09:59:17;;;;;;;2.23;1.27;;;;;;;4.78;63.39;97462.41;8466610;28;20225;-67
2022/01/08 10:03:22;;;;;;;3.13;1.10;;;;;;;4.86;62.93;97470.69;8469658;28;20226;-67
2022/01/08 10:07:27;;;;;;;2.17;1.37;;;;;;;4.86;62.61;97483.53;8469274;28;20331;-67
2022/01/08 10:11:32;;;;;;;2.63;1.23;;;;;;;4.85;62.64;97488.69;8483846;28;20225;-67
2022/01/08 10:19:57;;;;;;;2.07;1.40;;;;;;;4.98;62.90;97496.88;8480326;28;20240;-67
2022/01/08 10:24:03;;;;;;;2.70;1.90;;;;;;;5.04;62.84;97502.66;8483631;28;20234;-67
2022/01/08 10:28:08;;;;;;;4.57;2.17;;;;;;;5.21;62.65;97493.63;8483694;28;20281;-67
2022/01/08 10:32:11;;;;;;;3.30;1.47;;;;;;;5.06;62.40;97503.47;8475226;28;20229;-67
2022/01/08 10:36:14;;;;;;;3.03;1.67;;;;;;;5.05;62.72;97511.22;8473684;28;20327;-68
2022/01/08 10:40:33;;;;;;;2.93;2.00;;;;;;;4.98;62.19;97514.84;8457545;28;20279;-68
2022/01/08 10:44:38;;;;;;;3.70;2.37;;;;;;;5.14;62.30;97516.09;8457317;28;20218;-68
2022/01/08 10:48:49;;;;;;;3.60;1.90;;;;;;;4.98;62.15;97532.81;8467475;28;20237;-68
2022/01/08 10:52:52;;;;;;;3.50;2.13;;;;;;;5.01;61.67;97548.13;8466001;28;20271;-68
2022/01/08 10:56:57;;;;;;;3.80;2.23;;;;;;;5.20;60.77;97549.28;8464375;28;20271;-68
2022/01/08 11:01:05;;;;;;;4.47;2.40;;;;;;;5.38;60.18;97552.19;8456573;28;20229;-68
2022/01/08 11:05:09;;;;;;;4.93;3.20;;;;;;;5.48;60.08;97545.84;8481741;28;20437;-68
2022/01/08 11:09:12;;;;;;;6.53;3.10;;;;;;;5.46;59.66;97556.22;8482033;28;20413;-67
2022/01/08 11:13:16;;;;;;;5.80;3.10;;;;;;;5.45;59.92;97554.50;8482072;28;20233;-67
2022/01/08 11:17:23;;;;;;;6.93;4.10;;;;;;;5.58;59.36;97561.81;8481895;28;20232;-67
2022/01/08 11:21:31;;;;;;;4.57;3.10;;;;;;;5.49;58.46;97568.09;8481668;28;20235;-67
2022/01/08 11:25:35;;;;;;;4.30;3.20;;;;;;;5.84;58.19;97571.31;8446554;28;20222;-67
2022/01/08 11:29:39;;;;;;;5.73;3.73;;;;;;;5.72;58.73;97569.13;8447931;28;20237;-67
2022/01/08 11:33:48;;;;;;;6.07;3.40;;;;;;;6.00;57.62;97569.97;8447740;28;20242;-67
2022/01/08 11:37:53;;;;;;;5.53;3.40;;;;;;;5.97;57.76;97571.78;8447845;28;20250;-67
2022/01/08 11:41:56;;;;;;;5.40;3.60;;;;;;;6.51;56.51;97572.56;8447880;28;20294;-67
2022/01/08 11:46:01;;;;;;;5.00;3.67;;;;;;;6.57;55.55;97577.53;8447357;28;20225;-67
2022/01/08 11:50:07;;;;;;;4.70;3.30;;;;;;;6.73;55.63;97576.09;8447117;28;20222;-67
2022/01/08 11:54:10;;;;;;;3.43;3.07;;;;;;;6.63;56.40;97573.00;8447916;28;20233;-67
2022/01/08 11:58:18;;;;;;;4.37;3.30;;;;;;;6.54;56.69;97583.59;8447632;28;20233;-67
2022/01/08 12:02:21;;;;;;;7.97;3.70;;;;;;;6.34;56.15;97591.16;8447372;28;20521;-67
2022/01/08 12:06:38;;;;;;;5.57;4.20;;;;;;;6.43;55.55;97572.84;8447307;28;20240;-67
2022/01/08 12:10:55;;;;;;;5.77;3.83;;;;;;;6.63;54.85;97578.16;8446773;28;20234;-67
2022/01/08 12:14:58;;;;;;;6.00;4.20;;;;;;;6.62;55.41;97581.59;8447282;28;20233;-67
2022/01/08 12:19:02;;;;;;;6.43;3.87;;;;;;;6.90;54.67;97578.06;8447490;28;20227;-67
2022/01/08 12:23:30;;;;;;;6.87;4.80;;;;;;;7.05;55.16;97574.94;8447233;28;20549;-67
2022/01/08 12:27:47;;;;;;;7.20;4.90;;;;;;;7.19;54.90;97573.59;8446445;28;20218;-67
2022/01/08 12:31:51;;;;;;;6.50;4.80;;;;;;;7.31;53.97;97564.56;8446866;28;20441;-67
2022/01/08 12:36:31;;;;;;;5.13;4.30;;;;;;;7.59;53.33;97561.78;8446357;28;20289;-67
2022/01/08 12:40:40;;;;;;;12.03;5.40;;;;;;;8.56;74.71;97563.88;8452692;28;20229;-67
2022/01/08 12:44:43;;;;;;;14.97;4.90;;;;;;;10.56;68.36;97562.38;8453008;28;20239;-68
2022/01/08 12:49:12;;;;;;;6.07;4.20;;;;;;;9.14;50.19;97546.75;8453038;28;20230;-68
2022/01/08 12:53:26;;;;;;;6.83;3.30;;;;;;;7.77;50.98;97547.34;8452774;28;20274;-68
2022/01/08 12:57:33;;;;;;;5.90;3.37;;;;;;;7.64;51.62;97541.84;8474619;28;20232;-68
2022/01/08 13:01:39;;;;;;;7.10;3.50;;;;;;;7.34;51.35;97546.44;8485525;28;20221;-67
2022/01/08 13:05:42;;;;;;;6.17;3.90;;;;;;;7.40;50.46;97538.47;8486064;28;20296;-68
2022/01/08 13:09:45;;;;;;;7.27;3.43;;;;;;;7.44;51.90;97528.00;8485957;28;20229;-68
2022/01/08 13:13:53;;;;;;;5.07;3.50;;;;;;;7.26;51.94;97528.69;8485591;28;20233;-68
2022/01/08 13:17:57;;;;;;;5.80;4.20;;;;;;;7.28;52.64;97518.34;8485691;28;20233;-68
2022/01/08 13:22:02;;;;;;;7.77;4.70;;;;;;;7.06;52.86;97519.13;8485475;28;20252;-68
2022/01/08 13:26:05;;;;;;;8.10;4.20;;;;;;;7.00;53.73;97527.09;8485627;28;20240;-68
2022/01/08 13:30:12;;;;;;;6.13;4.60;;;;;;;6.64;54.97;97527.50;8485320;28;20233;-68
2022/01/08 13:34:16;;;;;;;6.80;4.10;;;;;;;6.66;54.62;97538.59;8485188;28;20232;-68
2022/01/08 13:38:29;;;;;;;4.80;3.60;;;;;;;6.90;54.26;97525.75;8485302;28;20236;-68
2022/01/08 13:42:35;;;;;;;6.87;3.40;;;;;;;6.62;54.90;97521.59;8450577;28;20242;-68
2022/01/08 13:46:40;;;;;;;5.33;3.37;;;;;;;6.79;54.18;97505.53;8450918;28;20234;-69
2022/01/08 13:50:47;;;;;;;5.83;3.60;;;;;;;6.73;54.56;97501.47;8450082;28;20545;-68
2022/01/08 13:54:51;;;;;;;10.30;4.37;;;;;;;7.04;53.97;97500.31;8450866;28;20240;-68
2022/01/08 13:59:04;;;;;;;9.47;4.97;;;;;;;6.80;54.15;97505.50;8450653;28;20404;-68
2022/01/08 14:03:20;;;;;;;7.40;4.57;;;;;;;7.01;54.16;97506.44;8450146;28;20237;-68
2022/01/08 14:07:36;;;;;;;6.43;3.80;;;;;;;6.96;54.10;97495.47;8450373;28;20285;-68
2022/01/08 14:11:38;;;;;;;7.23;3.57;;;;;;;6.93;53.55;97490.44;8449779;28;20234;-68
2022/01/08 14:15:43;;;;;;;7.60;3.77;;;;;;;6.80;54.15;97477.19;8450201;28;20253;-68
2022/01/08 14:19:49;;;;;;;10.47;4.40;;;;;;;6.95;54.06;97468.06;8450117;28;20416;-68
2022/01/08 14:23:53;;;;;;;6.53;3.83;;;;;;;6.99;53.79;97469.59;8450028;28;20234;-68
2022/01/08 14:27:56;;;;;;;11.03;5.00;;;;;;;6.91;53.83;97466.50;8449907;28;20540;-68
2022/01/08 14:32:00;;;;;;;8.97;5.60;;;;;;;7.02;53.47;97472.06;8449647;28;20290;-68
2022/01/08 14:36:05;;;;;;;7.00;3.93;;;;;;;7.19;52.92;97470.56;8449756;28;20233;-68
2022/01/08 14:40:16;;;;;;;7.03;3.83;;;;;;;7.48;52.16;97469.44;8449561;28;20226;-68
2022/01/08 14:44:24;;;;;;;9.17;5.60;;;;;;;7.38;52.58;97456.06;8449402;28;20541;-68
2022/01/08 14:48:28;;;;;;;5.67;3.40;;;;;;;7.07;52.19;97438.41;8448916;28;20233;-68
2022/01/08 14:52:37;;;;;;;6.27;3.37;;;;;;;6.95;52.19;97421.72;8448378;28;20293;-68
2022/01/08 14:56:41;;;;;;;7.47;4.60;;;;;;;6.54;53.87;97423.25;8449055;28;20234;-68
2022/01/08 15:00:44;;;;;;;10.93;5.17;;;;;;;6.37;53.88;97426.44;8448730;28;20226;-68
2022/01/08 15:04:47;;;;;;;12.77;6.30;;;;;;;6.23;55.08;97417.50;8448524;28;20257;-68
2022/01/08 15:08:52;;;;;;;13.47;8.60;;;;;;;6.24;54.35;97411.47;8448702;28;20248;-68
2022/01/08 15:12:55;;;;;;;11.07;8.53;;;;;;;6.15;54.92;97400.66;8448748;28;20226;-68
2022/01/08 15:16:58;;;;;;;10.73;8.37;;;;;;;6.19;54.82;97397.09;8448158;28;20560;-68
2022/01/08 15:21:02;;;;;;;15.60;6.80;;;;;;;5.49;55.88;97394.28;8448119;28;20267;-68
2022/01/08 15:25:07;;;;;;;8.63;4.80;;;;;;;5.70;56.32;97389.31;8447976;28;20230;-68
2022/01/08 15:29:10;;;;;;;15.60;5.20;;;;;;;5.85;55.38;97375.13;8448280;28;20226;-68
2022/01/08 15:33:13;;;;;;;8.67;4.40;;;;;;;5.87;55.41;97366.44;8448030;28;20238;-67
2022/01/08 15:37:16;;;;;;;7.50;4.30;;;;;;;5.96;56.10;97369.63;8447626;28;20226;-68
2022/01/08 15:41:20;;;;;;;6.50;4.13;;;;;;;5.94;56.20;97363.66;8447555;28;20561;-68
2022/01/08 15:45:29;;;;;;;6.40;4.10;;;;;;;5.80;56.04;97351.31;8447686;28;20241;-68
2022/01/08 15:49:32;;;;;;;9.13;4.60;;;;;;;5.90;56.16;97354.38;8446951;28;20221;-68
2022/01/08 15:53:36;;;;;;;7.63;5.23;;;;;;;5.92;55.71;97339.75;8447420;28;20226;-68
2022/01/08 15:57:40;;;;;;;9.10;4.97;;;;;;;5.71;55.85;97326.75;8447451;28;20234;-68
2022/01/08 16:01:43;;;;;;;9.67;4.53;;;;;;;5.46;55.95;97331.91;8447175;28;20226;-68
2022/01/08 16:05:46;;;;;;;28.03;18.40;;;;;;;5.67;55.81;97318.34;8447023;28;20240;-68
2022/01/08 16:09:49;;;;;;;19.40;12.23;;;;;;;5.83;55.78;97321.19;8447197;28;20532;-68
2022/01/08 16:13:53;;;;;;;14.43;9.77;;;;;;;5.87;55.62;97309.91;8451942;28;20538;-68
2022/01/08 16:17:56;;;;;;;10.60;6.73;;;;;;;5.63;56.12;97310.78;8454447;28;20232;-68
2022/01/08 16:21:59;;;;;;;11.17;5.27;;;;;;;5.40;56.14;97303.88;8454171;28;20229;-68
2022/01/08 16:26:02;;;;;;;8.90;4.90;;;;;;;5.56;55.75;97302.47;8453886;28;20232;-68
2022/01/08 16:30:08;;;;;;;10.60;4.47;;;;;;;5.51;56.38;97291.50;8453714;28;20225;-68
2022/01/08 16:34:11;;;;;;;9.27;4.97;;;;;;;5.55;55.91;97293.06;8453578;28;20400;-68
2022/01/08 16:38:15;;;;;;;11.00;5.20;;;;;;;4.96;57.43;97283.94;8453566;28;20244;-68
2022/01/08 16:42:18;;;;;;;6.73;4.10;;;;;;;4.95;57.64;97278.84;8453568;28;20230;-68
2022/01/08 16:46:22;;;;;;;10.20;4.77;;;;;;;5.09;57.16;97271.53;8453411;28;20419;-68
2022/01/08 16:50:25;;;;;;;12.30;5.43;;;;;;;5.45;56.36;97259.16;8453440;28;20242;-68
2022/01/08 16:54:28;;;;;;;10.33;6.13;;;;;;;5.19;56.67;97246.41;8453347;28;20237;-68
2022/01/08 16:58:31;;;;;;;9.90;5.70;;;;;;;5.03;56.90;97236.66;8452447;28;20403;-69
2022/01/08 17:02:36;;;;;;;11.30;7.07;;;;;;;4.97;57.70;97233.44;8452645;28;20237;-68
2022/01/08 17:06:39;;;;;;;12.57;5.97;;;;;;;5.14;56.54;97228.59;8452920;28;20533;-68
2022/01/08 17:10:42;;;;;;;16.27;8.93;;;;;;;4.82;57.56;97204.84;8452266;28;20234;-68
2022/01/08 17:14:45;;;;;;;15.33;8.33;;;;;;;4.82;57.85;97201.47;8452318;28;20234;-68
2022/01/08 17:18:49;;;;;;;18.63;10.80;;;;;;;4.73;57.54;97189.78;8452153;28;20537;-68
2022/01/08 17:22:54;;;;;;;15.13;9.53;;;;;;;4.83;57.41;97198.00;8451601;28;20234;-68
2022/01/08 17:26:57;;;;;;;11.63;8.57;;;;;;;4.81;57.44;97190.34;8451563;28;20233;-68
2022/01/08 17:31:00;;;;;;;13.63;8.80;;;;;;;4.79;57.72;97173.34;8451483;28;20234;-68
2022/01/08 17:35:06;;;;;;;12.70;7.30;;;;;;;4.87;57.78;97169.63;8451667;28;20230;-68
2022/01/08 17:39:10;;;;;;;13.43;7.27;;;;;;;4.86;58.21;97161.97;8451781;28;20896;-68
2022/01/08 17:43:13;;;;;;;12.30;7.90;;;;;;;4.93;56.98;97154.91;8451370;28;20265;-68
2022/01/08 17:47:17;;;;;;;14.20;8.50;;;;;;;4.98;57.34;97137.63;8451313;28;20299;-68
2022/01/08 17:51:22;;;;;;;14.03;9.10;;;;;;;4.47;58.57;97127.38;8451274;28;20254;-68
2022/01/08 17:55:28;;;;;;;12.20;8.90;;;;;;;4.56;58.49;97126.22;8451137;28;20237;-68
2022/01/08 17:59:31;;;;;;;13.60;8.63;;;;;;;4.41;58.84;97111.34;8450573;28;20228;-68
2022/01/08 18:03:34;;;;;;;14.43;9.70;;;;;;;4.14;59.00;97113.09;8450546;28;20425;-68
2022/01/08 18:07:39;;;;;;;14.80;9.17;;;;;;;4.46;58.57;97101.78;8450546;28;20238;-68
2022/01/08 18:11:43;;;;;;;16.20;10.47;;;;;;;3.92;60.54;97091.56;8450755;28;20552;-68
2022/01/08 18:15:46;;;;;;;13.60;9.43;;;;;;;4.60;59.02;97073.09;8450689;28;20240;-68
2022/01/08 18:19:49;;;;;;;15.90;10.40;;;;;;;3.92;60.21;97065.09;8450092;28;20230;-68
2022/01/08 18:23:53;;;;;;;14.07;10.33;;;;;;;3.97;59.70;97050.41;8450312;28;20234;-68
2022/01/08 18:27:56;;;;;;;14.30;10.57;;;;;;;3.79;59.97;97046.72;8450185;28;20244;-68
2022/01/08 18:31:59;;;;;;;22.33;15.73;;;;;;;3.66;60.30;97032.63;8449699;28;20230;-68
2022/01/08 18:36:02;;;;;;;23.10;15.47;;;;;;;3.79;60.78;97025.38;8448893;28;20230;-68
2022/01/08 18:40:08;;;;;;;18.57;12.10;;;;;;;3.99;59.91;97020.44;8462143;28;20248;-70
2022/01/08 18:44:12;;;;;;;12.73;9.43;;;;;;;5.17;61.77;97005.16;8482105;28;20234;-67
2022/01/08 18:48:15;;;;;;;13.50;8.57;;;;;;;4.55;58.40;97003.19;8482340;28;20233;-70
2022/01/08 18:52:18;;;;;;;13.93;8.53;;;;;;;4.46;58.92;96992.38;8482362;28;20225;-70
2022/01/08 18:56:23;;;;;;;13.87;9.57;;;;;;;4.15;59.45;96976.38;8482355;28;20231;-70
2022/01/08 19:00:27;;;;;;;14.43;9.33;;;;;;;4.07;59.85;96971.50;8482140;28;20229;-69
2022/01/08 19:04:30;;;;;;;11.83;8.47;;;;;;;3.93;59.75;96959.19;8462010;28;20241;-70
2022/01/08 19:08:33;;;;;;;12.43;7.93;;;;;;;3.62;60.33;96962.75;8467802;28;20448;-71
2022/01/08 19:12:39;;;;;;;11.03;7.80;;;;;;;3.73;59.76;96934.22;8453153;28;20555;-70
2022/01/08 19:16:42;;;;;;;9.47;7.27;;;;;;;3.88;59.91;96930.31;8461081;28;20229;-71
2022/01/08 19:20:44;;;;;;;10.70;7.72;;;;;;;4.44;58.26;96917.25;8479581;28;20408;-71
2022/01/08 19:24:47;;;;;;;11.27;6.70;;;;;;;3.98;58.96;96912.91;8480877;28;20249;-71
2022/01/08 19:28:52;;;;;;;11.90;6.90;;;;;;;4.22;58.95;96929.16;8481509;28;20680;-69
2022/01/08 19:32:55;;;;;;;10.53;7.37;;;;;;;4.35;58.61;96909.06;8479880;27;20233;-72